createdAt,value
2023-02-15T00:00:41.663Z,102240.50
2023-02-15T00:02:03.793Z,102245.11
2023-02-15T00:03:06.693Z,102245.28
2023-02-15T00:04:10.408Z,102241.47
2023-02-15T00:05:13.225Z,102243.45
2023-02-15T00:06:16.356Z,102244.66
2023-02-15T00:07:20.158Z,102243.58
2023-02-15T00:08:23.881Z,102244.34
2023-02-15T00:09:26.746Z,102245.71
2023-02-15T00:10:29.621Z,102242.02
2023-02-15T00:11:41.932Z,102241.27
2023-02-15T00:12:45.817Z,102240.77
2023-02-15T00:13:48.756Z,102242.23
2023-02-15T00:14:51.579Z,102239.80
2023-02-15T00:15:54.724Z,102243.02
2023-02-15T00:17:00.872Z,102244.98
2023-02-15T00:18:03.808Z,102246.09
2023-02-15T00:19:07.340Z,102245.17
2023-02-15T00:20:10.525Z,102240.70
2023-02-15T00:21:13.718Z,102240.50
2023-02-15T00:22:16.612Z,102236.95
2023-02-15T00:23:19.468Z,102235.98
2023-02-15T00:24:22.552Z,102241.40
2023-02-15T00:25:25.497Z,102238.55
2023-02-15T00:26:29.199Z,102235.44
2023-02-15T00:27:32.070Z,102234.11
2023-02-15T00:28:35.041Z,102234.52
2023-02-15T00:29:37.960Z,102232.41
2023-02-15T00:30:40.937Z,102233.88
2023-02-15T00:31:43.869Z,102234.81
2023-02-15T00:32:48.826Z,102233.20
2023-02-15T00:33:52.072Z,102228.92
2023-02-15T00:34:55.257Z,102229.92
2023-02-15T00:36:01.646Z,102223.73
2023-02-15T00:37:04.850Z,102226.29
2023-02-15T00:38:07.717Z,102220.86
2023-02-15T00:39:11.562Z,102223.37
2023-02-15T00:40:14.536Z,102215.67
2023-02-15T00:41:17.444Z,102217.11
2023-02-15T00:42:20.287Z,102216.52
2023-02-15T00:43:23.199Z,102216.14
2023-02-15T00:44:26.064Z,102215.02
2023-02-15T00:45:28.926Z,102211.23
2023-02-15T00:46:32.288Z,102210.80
2023-02-15T00:47:35.188Z,102207.02
2023-02-15T00:48:38.047Z,102213.67
2023-02-15T00:49:41.016Z,102211.03
2023-02-15T00:50:47.492Z,102208.26
2023-02-15T00:51:50.382Z,102207.55
2023-02-15T00:52:53.269Z,102209.23
2023-02-15T00:53:56.507Z,102206.11
2023-02-15T00:54:59.392Z,102206.89
2023-02-15T00:56:02.620Z,102207.61
2023-02-15T00:57:05.773Z,102206.11
2023-02-15T00:58:10.676Z,102212.41
2023-02-15T00:59:13.552Z,102207.75
2023-02-15T01:00:16.576Z,102211.43
2023-02-15T01:01:21.185Z,102211.96
2023-02-15T01:02:24.140Z,102209.49
2023-02-15T01:03:27.077Z,102207.09
2023-02-15T01:04:29.990Z,102207.48
2023-02-15T01:05:33.826Z,102202.56
2023-02-15T01:06:37.250Z,102202.46
2023-02-15T01:07:40.151Z,102202.04
2023-02-15T01:08:43.495Z,102202.37
2023-02-15T01:09:46.351Z,102199.36
2023-02-15T01:10:51.002Z,102202.37
2023-02-15T01:11:53.979Z,102201.20
2023-02-15T01:12:57.794Z,102203.00
2023-02-15T01:14:00.763Z,102198.41
2023-02-15T01:15:04.010Z,102200.42
2023-02-15T01:16:07.292Z,102199.77
2023-02-15T01:17:10.175Z,102196.95
2023-02-15T01:18:13.739Z,102194.81
2023-02-15T01:19:17.020Z,102194.64
2023-02-15T01:20:24.866Z,102194.27
2023-02-15T01:21:27.900Z,102194.38
2023-02-15T01:22:30.829Z,102190.77
2023-02-15T01:23:34.073Z,102191.66
2023-02-15T01:24:37.015Z,102187.41
2023-02-15T01:25:39.995Z,102190.30
2023-02-15T01:26:42.870Z,102187.34
2023-02-15T01:27:46.777Z,102187.61
2023-02-15T01:28:49.662Z,102188.25
2023-02-15T01:29:53.113Z,102190.93
2023-02-15T01:30:58.210Z,102188.59
2023-02-15T01:32:01.270Z,102188.09
2023-02-15T01:33:04.633Z,102185.17
2023-02-15T01:34:07.733Z,102186.41
2023-02-15T01:35:11.451Z,102185.14
2023-02-15T01:36:15.334Z,102184.70
2023-02-15T01:37:18.182Z,102183.54
2023-02-15T01:38:21.045Z,102183.20
2023-02-15T01:39:23.994Z,102186.75
2023-02-15T01:40:27.572Z,102186.98
2023-02-15T01:41:30.704Z,102185.38
2023-02-15T01:42:33.590Z,102184.54
2023-02-15T01:43:44.170Z,102187.73
2023-02-15T01:45:05.428Z,102185.58
2023-02-15T01:46:10.548Z,102186.21
2023-02-15T01:47:18.899Z,102184.04
2023-02-15T01:48:29.055Z,102181.56
2023-02-15T01:49:34.061Z,102180.19
2023-02-15T01:50:46.927Z,102179.85
2023-02-15T01:51:53.586Z,102180.19
2023-02-15T01:53:02.906Z,102178.09
2023-02-15T01:54:20.364Z,102182.36
2023-02-15T01:55:26.113Z,102181.66
2023-02-15T01:56:33.530Z,102181.53
2023-02-15T01:57:37.495Z,102180.86
2023-02-15T01:58:41.079Z,102181.70
2023-02-15T01:59:49.721Z,102181.30
2023-02-15T02:00:55.408Z,102178.45
2023-02-15T02:02:01.805Z,102181.09
2023-02-15T02:03:04.948Z,102179.98
2023-02-15T02:04:26.781Z,102178.42
2023-02-15T02:05:31.077Z,102176.65
2023-02-15T02:06:36.305Z,102174.54
2023-02-15T02:07:43.485Z,102176.31
2023-02-15T02:08:47.506Z,102170.62
2023-02-15T02:09:51.499Z,102171.19
2023-02-15T02:10:54.381Z,102170.84
2023-02-15T02:11:57.350Z,102170.06
2023-02-15T02:13:04.218Z,102169.69
2023-02-15T02:14:07.573Z,102167.73
2023-02-15T02:15:12.485Z,102165.77
2023-02-15T02:16:48.546Z,102161.57
2023-02-15T02:17:54.218Z,102160.90
2023-02-15T02:19:24.364Z,102159.59
2023-02-15T02:20:40.077Z,102159.63
2023-02-15T02:22:09.889Z,102157.25
2023-02-15T02:23:39.914Z,102159.06
2023-02-15T02:25:01.175Z,102159.66
2023-02-15T02:26:18.545Z,102157.86
2023-02-15T02:27:35.407Z,102161.08
2023-02-15T02:28:50.529Z,102158.23
2023-02-15T02:30:10.713Z,102156.55
2023-02-15T02:31:45.305Z,102156.63
2023-02-15T02:33:14.613Z,102155.91
2023-02-15T02:34:20.256Z,102159.84
2023-02-15T02:35:41.231Z,102152.87
2023-02-15T02:37:05.547Z,102152.37
2023-02-15T02:38:27.434Z,102152.50
2023-02-15T02:39:49.007Z,102154.45
2023-02-15T02:41:18.124Z,102151.42
2023-02-15T02:42:55.929Z,102151.06
2023-02-15T02:44:03.924Z,102152.54
2023-02-15T02:45:16.611Z,102149.64
2023-02-15T02:46:29.442Z,102149.70
2023-02-15T02:47:40.720Z,102151.09
2023-02-15T02:48:44.417Z,102152.45
2023-02-15T02:49:48.868Z,102154.72
2023-02-15T02:50:51.692Z,102154.38
2023-02-15T02:52:03.013Z,102151.54
2023-02-15T02:53:06.010Z,102152.27
2023-02-15T02:54:09.409Z,102153.58
2023-02-15T02:55:47.252Z,102151.04
2023-02-15T02:56:53.523Z,102151.58
2023-02-15T02:58:26.846Z,102152.52
2023-02-15T02:59:37.974Z,102151.15
2023-02-15T03:00:47.360Z,102148.80
2023-02-15T03:02:03.894Z,102142.21
2023-02-15T03:03:13.545Z,102145.46
2023-02-15T03:04:25.339Z,102144.55
2023-02-15T03:05:30.902Z,102140.52
2023-02-15T03:06:40.030Z,102138.77
2023-02-15T03:07:48.326Z,102142.41
2023-02-15T03:09:02.284Z,102141.34
2023-02-15T03:10:07.694Z,102137.13
2023-02-15T03:11:12.684Z,102140.55
2023-02-15T03:12:16.536Z,102138.38
2023-02-15T03:13:22.944Z,102139.27
2023-02-15T03:14:25.872Z,102141.65
2023-02-15T03:15:56.270Z,102141.45
2023-02-15T03:16:59.759Z,102142.15
2023-02-15T03:18:04.145Z,102140.55
2023-02-15T03:19:11.301Z,102141.31
2023-02-15T03:20:27.304Z,102144.86
2023-02-15T03:21:40.014Z,102142.85
2023-02-15T03:22:51.838Z,102139.51
2023-02-15T03:24:02.135Z,102140.53
2023-02-15T03:25:22.501Z,102138.63
2023-02-15T03:26:27.118Z,102138.73
2023-02-15T03:27:39.240Z,102141.06
2023-02-15T03:28:48.351Z,102142.95
2023-02-15T03:29:56.659Z,102146.84
2023-02-15T03:31:03.640Z,102148.44
2023-02-15T03:32:11.434Z,102147.86
2023-02-15T03:33:16.015Z,102144.27
2023-02-15T03:34:19.894Z,102140.99
2023-02-15T03:35:27.156Z,102146.30
2023-02-15T03:36:57.135Z,102146.56
2023-02-15T03:38:02.759Z,102143.95
2023-02-15T03:39:14.804Z,102143.92
2023-02-15T03:40:54.326Z,102144.45
2023-02-15T03:42:25.545Z,102145.39
2023-02-15T03:43:59.552Z,102145.66
2023-02-15T03:45:05.541Z,102144.63
2023-02-15T03:46:34.689Z,102143.72
2023-02-15T03:47:43.064Z,102143.32
2023-02-15T03:48:53.857Z,102141.21
2023-02-15T03:50:03.310Z,102138.20
2023-02-15T03:51:29.505Z,102138.98
2023-02-15T03:52:35.102Z,102141.42
2023-02-15T03:53:39.280Z,102140.52
2023-02-15T03:54:47.084Z,102136.54
2023-02-15T03:55:55.831Z,102137.34
2023-02-15T03:57:18.835Z,102136.77
2023-02-15T03:58:40.850Z,102136.11
2023-02-15T04:00:02.710Z,102132.34
2023-02-15T04:01:41.990Z,102132.09
2023-02-15T04:03:15.811Z,102132.09
2023-02-15T04:04:25.682Z,102130.09
2023-02-15T04:05:28.718Z,102131.02
2023-02-15T04:06:31.603Z,102131.45
2023-02-15T04:07:34.465Z,102127.20
2023-02-15T04:08:55.941Z,102129.78
2023-02-15T04:10:17.673Z,102126.51
2023-02-15T04:11:20.559Z,102128.24
2023-02-15T04:12:23.964Z,102126.54
2023-02-15T04:13:33.578Z,102129.71
2023-02-15T04:14:55.440Z,102130.11
2023-02-15T04:16:05.616Z,102126.20
2023-02-15T04:17:10.401Z,102130.26
2023-02-15T04:18:13.334Z,102127.14
2023-02-15T04:19:34.683Z,102123.86
2023-02-15T04:20:56.247Z,102131.91
2023-02-15T04:22:17.879Z,102131.23
2023-02-15T04:23:39.199Z,102128.05
2023-02-15T04:25:00.906Z,102127.15
2023-02-15T04:26:08.451Z,102126.65
2023-02-15T04:27:11.346Z,102127.18
2023-02-15T04:28:14.265Z,102128.95
2023-02-15T04:29:17.123Z,102127.75
2023-02-15T04:30:23.297Z,102131.50
2023-02-15T04:31:26.299Z,102131.39
2023-02-15T04:32:29.209Z,102127.61
2023-02-15T04:33:33.222Z,102128.95
2023-02-15T04:34:36.196Z,102128.45
2023-02-15T04:35:39.050Z,102127.85
2023-02-15T04:36:42.731Z,102125.91
2023-02-15T04:37:45.653Z,102127.35
2023-02-15T04:38:48.536Z,102128.02
2023-02-15T04:39:51.498Z,102127.15
2023-02-15T04:40:54.363Z,102128.09
2023-02-15T04:41:57.240Z,102125.25
2023-02-15T04:43:00.196Z,102122.36
2023-02-15T04:44:03.100Z,102124.98
2023-02-15T04:45:06.461Z,102123.41
2023-02-15T04:46:09.473Z,102126.33
2023-02-15T04:47:12.356Z,102124.48
2023-02-15T04:48:17.104Z,102124.23
2023-02-15T04:49:19.975Z,102123.57
2023-02-15T04:50:22.964Z,102124.77
2023-02-15T04:51:26.439Z,102126.25
2023-02-15T04:52:29.416Z,102124.64
2023-02-15T04:53:32.303Z,102124.02
2023-02-15T04:54:35.178Z,102123.48
2023-02-15T04:55:38.014Z,102122.94
2023-02-15T04:56:41.087Z,102119.30
2023-02-15T04:57:44.017Z,102124.95
2023-02-15T04:58:47.224Z,102123.90
2023-02-15T04:59:50.095Z,102122.71
2023-02-15T05:00:56.733Z,102118.91
2023-02-15T05:01:59.628Z,102118.84
2023-02-15T05:03:02.434Z,102123.65
2023-02-15T05:04:05.497Z,102124.88
2023-02-15T05:05:10.570Z,102128.73
2023-02-15T05:06:14.156Z,102125.79
2023-02-15T05:07:17.088Z,102131.30
2023-02-15T05:08:20.006Z,102130.19
2023-02-15T05:09:22.951Z,102130.16
2023-02-15T05:10:25.780Z,102128.56
2023-02-15T05:11:28.672Z,102132.10
2023-02-15T05:12:31.796Z,102132.54
2023-02-15T05:13:34.637Z,102132.73
2023-02-15T05:14:37.748Z,102135.05
2023-02-15T05:15:40.623Z,102135.11
2023-02-15T05:16:43.563Z,102134.52
2023-02-15T05:17:46.493Z,102137.98
2023-02-15T05:18:49.501Z,102135.84
2023-02-15T05:19:52.368Z,102133.11
2023-02-15T05:20:55.429Z,102137.92
2023-02-15T05:21:58.387Z,102138.60
2023-02-15T05:23:01.212Z,102141.70
2023-02-15T05:24:24.485Z,102144.77
2023-02-15T05:25:45.970Z,102143.34
2023-02-15T05:27:07.449Z,102147.19
2023-02-15T05:28:21.235Z,102148.05
2023-02-15T05:29:24.103Z,102147.46
2023-02-15T05:30:27.274Z,102149.60
2023-02-15T05:31:32.454Z,102150.13
2023-02-15T05:32:35.590Z,102147.43
2023-02-15T05:33:39.488Z,102150.30
2023-02-15T05:34:42.365Z,102146.79
2023-02-15T05:35:45.191Z,102149.83
2023-02-15T05:36:48.417Z,102147.32
2023-02-15T05:37:51.342Z,102148.58
2023-02-15T05:38:54.194Z,102145.08
2023-02-15T05:39:57.038Z,102145.98
2023-02-15T05:41:00.277Z,102145.31
2023-02-15T05:42:03.333Z,102147.69
2023-02-15T05:43:06.259Z,102146.71
2023-02-15T05:44:09.096Z,102143.70
2023-02-15T05:45:11.965Z,102142.04
2023-02-15T05:46:14.910Z,102144.88
2023-02-15T05:47:17.855Z,102141.94
2023-02-15T05:48:22.872Z,102142.40
2023-02-15T05:49:26.758Z,102142.98
2023-02-15T05:50:29.673Z,102145.48
2023-02-15T05:51:34.973Z,102141.86
2023-02-15T05:52:38.288Z,102142.01
2023-02-15T05:53:41.600Z,102143.38
2023-02-15T05:54:44.491Z,102142.59
2023-02-15T05:55:47.284Z,102146.30
2023-02-15T05:56:50.206Z,102141.71
2023-02-15T05:57:53.624Z,102143.52
2023-02-15T05:58:56.512Z,102147.59
2023-02-15T05:59:59.432Z,102143.04
2023-02-15T06:01:13.072Z,102142.90
2023-02-15T06:02:15.957Z,102143.16
2023-02-15T06:03:18.894Z,102141.80
2023-02-15T06:04:21.991Z,102140.93
2023-02-15T06:05:25.410Z,102144.98
2023-02-15T06:06:28.284Z,102142.34
2023-02-15T06:07:31.225Z,102140.80
2023-02-15T06:08:36.194Z,102144.28
2023-02-15T06:09:39.125Z,102143.95
2023-02-15T06:10:42.113Z,102139.36
2023-02-15T06:11:46.408Z,102138.56
2023-02-15T06:12:49.341Z,102137.77
2023-02-15T06:13:52.224Z,102142.23
2023-02-15T06:14:55.086Z,102141.54
2023-02-15T06:15:58.113Z,102140.51
2023-02-15T06:17:01.068Z,102139.87
2023-02-15T06:18:04.008Z,102138.05
2023-02-15T06:19:06.964Z,102140.23
2023-02-15T06:20:10.553Z,102142.77
2023-02-15T06:21:13.636Z,102143.04
2023-02-15T06:22:16.558Z,102144.55
2023-02-15T06:23:19.686Z,102146.57
2023-02-15T06:24:22.653Z,102144.04
2023-02-15T06:25:25.804Z,102145.27
2023-02-15T06:26:28.676Z,102150.75
2023-02-15T06:27:31.652Z,102148.05
2023-02-15T06:28:34.701Z,102148.83
2023-02-15T06:29:37.610Z,102148.98
2023-02-15T06:30:40.876Z,102148.09
2023-02-15T06:31:43.905Z,102152.26
2023-02-15T06:32:46.883Z,102150.33
2023-02-15T06:33:49.728Z,102156.20
2023-02-15T06:34:52.566Z,102156.20
2023-02-15T06:35:55.553Z,102153.02
2023-02-15T06:36:59.104Z,102155.97
2023-02-15T06:38:02.039Z,102156.52
2023-02-15T06:39:05.387Z,102157.27
2023-02-15T06:40:09.173Z,102150.80
2023-02-15T06:41:12.013Z,102152.23
2023-02-15T06:42:14.945Z,102152.94
2023-02-15T06:43:17.864Z,102151.20
2023-02-15T06:44:20.771Z,102149.20
2023-02-15T06:45:23.675Z,102155.77
2023-02-15T06:46:26.603Z,102153.94
2023-02-15T06:47:29.497Z,102152.23
2023-02-15T06:48:32.408Z,102157.54
2023-02-15T06:49:35.313Z,102159.72
2023-02-15T06:50:38.376Z,102159.48
2023-02-15T06:51:41.287Z,102158.95
2023-02-15T06:52:44.166Z,102161.69
2023-02-15T06:53:47.040Z,102156.00
2023-02-15T06:54:49.924Z,102156.73
2023-02-15T06:55:52.888Z,102155.56
2023-02-15T06:56:55.752Z,102154.83
2023-02-15T06:57:58.659Z,102153.59
2023-02-15T06:59:02.271Z,102152.92
2023-02-15T07:00:07.186Z,102155.73
2023-02-15T07:01:10.697Z,102156.64
2023-02-15T07:02:14.749Z,102156.14
2023-02-15T07:03:17.657Z,102158.34
2023-02-15T07:04:20.600Z,102156.70
2023-02-15T07:05:23.829Z,102158.27
2023-02-15T07:06:26.702Z,102157.47
2023-02-15T07:07:29.591Z,102156.54
2023-02-15T07:08:32.614Z,102159.07
2023-02-15T07:09:35.655Z,102156.20
2023-02-15T07:10:38.567Z,102156.50
2023-02-15T07:12:00.239Z,102155.33
2023-02-15T07:13:03.243Z,102147.48
2023-02-15T07:14:06.152Z,102157.40
2023-02-15T07:15:21.900Z,102151.34
2023-02-15T07:16:24.875Z,102151.25
2023-02-15T07:17:35.851Z,102147.74
2023-02-15T07:18:39.809Z,102149.71
2023-02-15T07:19:43.099Z,102149.31
2023-02-15T07:20:45.986Z,102147.98
2023-02-15T07:21:49.408Z,102148.14
2023-02-15T07:22:52.680Z,102150.48
2023-02-15T07:23:58.797Z,102148.81
2023-02-15T07:25:01.687Z,102143.73
2023-02-15T07:26:06.489Z,102151.21
2023-02-15T07:27:09.439Z,102150.02
2023-02-15T07:28:12.265Z,102150.98
2023-02-15T07:29:16.544Z,102150.85
2023-02-15T07:30:19.539Z,102151.28
2023-02-15T07:31:22.464Z,102152.63
2023-02-15T07:32:29.497Z,102148.73
2023-02-15T07:33:33.558Z,102149.05
2023-02-15T07:34:36.481Z,102147.48
2023-02-15T07:35:39.446Z,102146.54
2023-02-15T07:36:42.741Z,102147.52
2023-02-15T07:37:46.139Z,102148.98
2023-02-15T07:38:49.200Z,102148.02
2023-02-15T07:39:52.177Z,102151.08
2023-02-15T07:41:02.955Z,102150.95
2023-02-15T07:42:05.807Z,102151.48
2023-02-15T07:43:08.763Z,102147.73
2023-02-15T07:44:15.865Z,102150.52
2023-02-15T07:45:18.751Z,102147.11
2023-02-15T07:46:22.031Z,102148.58
2023-02-15T07:47:24.930Z,102143.84
2023-02-15T07:48:28.157Z,102142.93
2023-02-15T07:49:31.036Z,102144.30
2023-02-15T07:50:34.551Z,102144.56
2023-02-15T07:51:37.739Z,102142.26
2023-02-15T07:52:40.686Z,102139.19
2023-02-15T07:53:43.783Z,102139.46
2023-02-15T07:54:46.691Z,102138.83
2023-02-15T07:55:49.544Z,102141.16
2023-02-15T07:56:52.408Z,102138.88
2023-02-15T07:57:55.268Z,102138.28
2023-02-15T07:58:59.549Z,102140.52
2023-02-15T08:00:02.647Z,102136.70
2023-02-15T08:01:16.070Z,102136.88
2023-02-15T08:02:19.030Z,102136.08
2023-02-15T08:03:27.720Z,102135.98
2023-02-15T08:04:30.718Z,102133.52
2023-02-15T08:05:33.539Z,102136.18
2023-02-15T08:06:37.366Z,102130.83
2023-02-15T08:07:40.656Z,102130.54
2023-02-15T08:08:43.596Z,102128.60
2023-02-15T08:09:46.471Z,102130.93
2023-02-15T08:11:07.737Z,102127.39
2023-02-15T08:12:10.596Z,102132.40
2023-02-15T08:13:13.506Z,102132.20
2023-02-15T08:14:21.471Z,102132.14
2023-02-15T08:15:24.343Z,102130.29
2023-02-15T08:16:42.718Z,102130.67
2023-02-15T08:17:45.628Z,102129.09
2023-02-15T08:18:48.746Z,102126.30
2023-02-15T08:19:51.580Z,102125.89
2023-02-15T08:20:54.428Z,102125.14
2023-02-15T08:22:03.099Z,102121.84
2023-02-15T08:23:06.026Z,102123.51
2023-02-15T08:24:11.876Z,102119.84
2023-02-15T08:25:14.818Z,102115.33
2023-02-15T08:26:18.002Z,102119.23
2023-02-15T08:27:27.707Z,102122.70
2023-02-15T08:28:30.606Z,102119.97
2023-02-15T08:29:35.786Z,102119.83
2023-02-15T08:30:38.721Z,102120.10
2023-02-15T08:31:42.934Z,102117.59
2023-02-15T08:32:45.915Z,102118.48
2023-02-15T08:33:51.142Z,102120.76
2023-02-15T08:34:54.107Z,102120.23
2023-02-15T08:35:57.104Z,102118.23
2023-02-15T08:37:00.585Z,102118.88
2023-02-15T08:38:03.909Z,102117.70
2023-02-15T08:39:07.338Z,102115.64
2023-02-15T08:40:10.725Z,102115.23
2023-02-15T08:41:15.703Z,102117.51
2023-02-15T08:42:18.900Z,102115.66
2023-02-15T08:43:21.903Z,102117.67
2023-02-15T08:44:25.552Z,102115.58
2023-02-15T08:45:28.443Z,102110.48
2023-02-15T08:46:33.819Z,102108.46
2023-02-15T08:47:36.694Z,102105.84
2023-02-15T08:48:40.030Z,102107.98
2023-02-15T08:49:43.074Z,102104.72
2023-02-15T08:50:46.145Z,102105.98
2023-02-15T08:51:50.718Z,102102.64
2023-02-15T08:52:53.589Z,102104.11
2023-02-15T08:53:58.938Z,102100.08
2023-02-15T08:55:01.926Z,102105.24
2023-02-15T08:56:05.519Z,102099.77
2023-02-15T08:57:08.626Z,102101.92
2023-02-15T08:58:11.444Z,102098.13
2023-02-15T08:59:20.112Z,102100.53
2023-02-15T09:00:26.391Z,102097.33
2023-02-15T09:01:32.218Z,102095.05
2023-02-15T09:02:35.241Z,102091.75
2023-02-15T09:03:38.205Z,102092.19
2023-02-15T09:04:41.171Z,102096.80
2023-02-15T09:05:44.140Z,102093.85
2023-02-15T09:06:49.511Z,102093.65
2023-02-15T09:07:52.436Z,102091.71
2023-02-15T09:08:56.927Z,102092.05
2023-02-15T09:09:59.776Z,102092.91
2023-02-15T09:11:26.798Z,102090.48
2023-02-15T09:12:29.688Z,102091.85
2023-02-15T09:13:32.627Z,102088.17
2023-02-15T09:14:35.540Z,102088.23
2023-02-15T09:15:38.435Z,102090.23
2023-02-15T09:16:43.516Z,102089.98
2023-02-15T09:17:46.462Z,102089.67
2023-02-15T09:18:49.755Z,102083.29
2023-02-15T09:19:52.612Z,102080.98
2023-02-15T09:20:56.413Z,102083.32
2023-02-15T09:21:59.630Z,102079.19
2023-02-15T09:23:02.467Z,102079.81
2023-02-15T09:24:08.996Z,102076.88
2023-02-15T09:25:11.913Z,102078.25
2023-02-15T09:26:18.109Z,102075.64
2023-02-15T09:27:20.969Z,102075.01
2023-02-15T09:28:23.771Z,102073.30
2023-02-15T09:29:26.679Z,102074.13
2023-02-15T09:30:29.868Z,102075.17
2023-02-15T09:31:37.824Z,102074.06
2023-02-15T09:32:40.729Z,102075.97
2023-02-15T09:33:45.236Z,102077.87
2023-02-15T09:34:48.128Z,102075.57
2023-02-15T09:35:50.980Z,102074.13
2023-02-15T09:36:54.533Z,102073.36
2023-02-15T09:37:57.514Z,102077.10
2023-02-15T09:39:08.700Z,102077.33
2023-02-15T09:40:17.092Z,102080.78
2023-02-15T09:41:56.424Z,102078.33
2023-02-15T09:43:27.292Z,102080.31
2023-02-15T09:45:07.980Z,102078.84
2023-02-15T09:46:29.886Z,102079.02
2023-02-15T09:48:06.914Z,102073.06
2023-02-15T09:49:32.727Z,102075.33
2023-02-15T09:51:13.296Z,102072.69
2023-02-15T09:52:41.105Z,102073.23
2023-02-15T09:54:16.495Z,102071.93
2023-02-15T09:55:28.569Z,102069.36
2023-02-15T09:56:40.649Z,102067.61
2023-02-15T09:58:06.411Z,102065.24
2023-02-15T09:59:32.524Z,102063.56
2023-02-15T10:00:53.772Z,102063.08
2023-02-15T10:02:15.559Z,102066.05
2023-02-15T10:03:37.256Z,102065.85
2023-02-15T10:05:13.459Z,102064.04
2023-02-15T10:06:28.598Z,102066.45
2023-02-15T10:07:46.094Z,102061.69
2023-02-15T10:09:01.222Z,102059.33
2023-02-15T10:10:35.819Z,102062.44
2023-02-15T10:12:07.844Z,102063.67
2023-02-15T10:13:33.125Z,102061.36
2023-02-15T10:14:52.516Z,102058.79
2023-02-15T10:16:21.205Z,102061.02
2023-02-15T10:17:41.068Z,102059.08
2023-02-15T10:18:46.644Z,102055.09
2023-02-15T10:19:52.281Z,102050.09
2023-02-15T10:21:16.612Z,102054.23
2023-02-15T10:22:39.329Z,102054.73
2023-02-15T10:24:01.241Z,102046.64
2023-02-15T10:25:25.391Z,102045.65
2023-02-15T10:26:47.859Z,102047.20
2023-02-15T10:27:51.391Z,102044.03
2023-02-15T10:29:08.701Z,102041.63
2023-02-15T10:30:44.743Z,102045.84
2023-02-15T10:31:49.992Z,102042.34
2023-02-15T10:33:17.559Z,102041.71
2023-02-15T10:34:42.028Z,102039.80
2023-02-15T10:36:13.516Z,102040.00
2023-02-15T10:37:35.093Z,102038.28
2023-02-15T10:38:49.463Z,102033.64
2023-02-15T10:40:29.674Z,102033.04
2023-02-15T10:41:51.276Z,102029.05
2023-02-15T10:43:22.992Z,102028.48
2023-02-15T10:44:54.264Z,102028.26
2023-02-15T10:46:13.694Z,102026.81
2023-02-15T10:47:29.123Z,102025.04
2023-02-15T10:49:08.889Z,102024.46
2023-02-15T10:50:30.414Z,102023.98
2023-02-15T10:51:48.739Z,102024.34
2023-02-15T10:53:08.701Z,102022.88
2023-02-15T10:54:25.307Z,102020.80
2023-02-15T10:56:22.195Z,102016.48
2023-02-15T10:57:31.455Z,102017.70
2023-02-15T10:58:50.652Z,102012.13
2023-02-15T11:00:03.048Z,102013.94
2023-02-15T11:01:09.144Z,102013.20
2023-02-15T11:02:24.081Z,102007.61
2023-02-15T11:03:51.718Z,102008.98
2023-02-15T11:05:16.395Z,102006.83
2023-02-15T11:06:22.586Z,102007.93
2023-02-15T11:07:33.248Z,102004.65
2023-02-15T11:08:47.652Z,102002.23
2023-02-15T11:10:02.892Z,102008.66
2023-02-15T11:11:10.670Z,102003.81
2023-02-15T11:12:21.955Z,102002.60
2023-02-15T11:13:29.518Z,102003.09
2023-02-15T11:14:42.020Z,102003.48
2023-02-15T11:15:50.638Z,102001.46
2023-02-15T11:17:00.641Z,102001.90
2023-02-15T11:18:14.151Z,102003.64
2023-02-15T11:19:17.056Z,101999.27
2023-02-15T11:20:24.238Z,102002.90
2023-02-15T11:21:34.278Z,102000.02
2023-02-15T11:22:37.376Z,101999.37
2023-02-15T11:23:46.171Z,102000.84
2023-02-15T11:24:49.733Z,102001.33
2023-02-15T11:26:03.452Z,101998.29
2023-02-15T11:27:13.941Z,101997.77
2023-02-15T11:28:26.152Z,101994.52
2023-02-15T11:29:49.483Z,101996.76
2023-02-15T11:30:56.661Z,101993.88
2023-02-15T11:32:04.569Z,101990.16
2023-02-15T11:33:19.484Z,101995.30
2023-02-15T11:34:32.034Z,101997.44
2023-02-15T11:35:46.041Z,101992.70
2023-02-15T11:36:53.916Z,101997.66
2023-02-15T11:38:15.890Z,101996.34
2023-02-15T11:39:21.827Z,101994.45
2023-02-15T11:41:01.696Z,101990.70
2023-02-15T11:42:17.891Z,101992.16
2023-02-15T11:43:44.562Z,101988.31
2023-02-15T11:45:17.747Z,101988.45
2023-02-15T11:46:22.676Z,101987.35
2023-02-15T11:47:25.710Z,101986.50
2023-02-15T11:48:32.034Z,101987.67
2023-02-15T11:49:36.306Z,101985.35
2023-02-15T11:50:40.115Z,101985.66
2023-02-15T11:51:43.076Z,101980.94
2023-02-15T11:52:46.033Z,101981.77
2023-02-15T11:53:50.339Z,101982.97
2023-02-15T11:54:56.461Z,101973.22
2023-02-15T11:56:00.953Z,101982.52
2023-02-15T11:57:19.547Z,101981.48
2023-02-15T11:58:35.140Z,101980.13
2023-02-15T11:59:41.705Z,101975.19
2023-02-15T12:00:47.856Z,101971.80
2023-02-15T12:01:52.437Z,101977.08
2023-02-15T12:02:58.473Z,101973.12
2023-02-15T12:04:26.990Z,101969.78
2023-02-15T12:05:30.769Z,101967.23
2023-02-15T12:06:49.626Z,101964.96
2023-02-15T12:08:02.386Z,101966.02
2023-02-15T12:09:36.037Z,101969.78
2023-02-15T12:10:54.402Z,101963.13
2023-02-15T12:12:27.758Z,101961.77
2023-02-15T12:13:31.721Z,101957.20
2023-02-15T12:14:58.976Z,101956.36
2023-02-15T12:16:11.332Z,101955.06
2023-02-15T12:17:14.721Z,101954.11
2023-02-15T12:18:40.090Z,101955.13
2023-02-15T12:19:44.773Z,101952.52
2023-02-15T12:20:48.089Z,101954.35
2023-02-15T12:21:53.856Z,101952.38
2023-02-15T12:23:03.892Z,101950.77
2023-02-15T12:24:27.330Z,101953.98
2023-02-15T12:25:53.407Z,101951.94
2023-02-15T12:27:04.843Z,101950.57
2023-02-15T12:28:59.702Z,101948.59
2023-02-15T12:30:22.860Z,101946.17
2023-02-15T12:31:43.099Z,101942.27
2023-02-15T12:33:00.885Z,101937.65
2023-02-15T12:34:26.165Z,101939.77
2023-02-15T12:35:31.780Z,101937.59
2023-02-15T12:36:47.458Z,101939.34
2023-02-15T12:37:56.631Z,101939.14
2023-02-15T12:39:19.547Z,101939.30
2023-02-15T12:40:30.870Z,101933.21
2023-02-15T12:41:35.292Z,101933.41
2023-02-15T12:42:45.965Z,101930.69
2023-02-15T12:44:06.176Z,101932.65
2023-02-15T12:45:33.580Z,101932.80
2023-02-15T12:46:39.502Z,101935.89
2023-02-15T12:47:42.740Z,101930.31
2023-02-15T12:48:45.604Z,101927.96
2023-02-15T12:50:24.820Z,101928.16
2023-02-15T12:51:28.772Z,101925.55
2023-02-15T12:52:31.699Z,101925.77
2023-02-15T12:53:37.297Z,101922.08
2023-02-15T12:54:42.733Z,101915.35
2023-02-15T12:55:56.115Z,101916.31
2023-02-15T12:57:00.070Z,101914.80
2023-02-15T12:58:31.293Z,101913.19
2023-02-15T12:59:34.441Z,101905.57
2023-02-15T13:00:38.136Z,101904.66
2023-02-15T13:01:43.316Z,101906.98
2023-02-15T13:02:50.940Z,101904.04
2023-02-15T13:04:15.886Z,101906.17
2023-02-15T13:05:44.144Z,101904.13